createdAt,value
2019-06-07T00:00:43.095Z,21.14
2019-06-07T00:01:43.136Z,21.15
2019-06-07T00:02:43.176Z,21.22
2019-06-07T00:03:43.213Z,21.20
2019-06-07T00:04:43.252Z,21.14
2019-06-07T00:05:43.290Z,21.19
2019-06-07T00:06:43.329Z,21.11
2019-06-07T00:07:43.366Z,21.14
2019-06-07T00:08:43.463Z,21.23
2019-06-07T00:09:43.446Z,21.15
2019-06-07T00:10:43.486Z,21.22
2019-06-07T00:11:43.523Z,21.13
2019-06-07T00:12:43.560Z,21.20
2019-06-07T00:13:43.603Z,21.14
2019-06-07T00:14:43.640Z,21.11
2019-06-07T00:15:43.683Z,21.04
2019-06-07T00:16:43.727Z,21.03
2019-06-07T00:17:43.870Z,20.93
2019-06-07T00:18:43.792Z,20.89
2019-06-07T00:19:43.831Z,20.85
2019-06-07T00:20:43.896Z,20.82
2019-06-07T00:22:18.329Z,20.77
2019-06-07T00:22:43.948Z,20.67
2019-06-07T00:23:43.986Z,20.58
2019-06-07T00:24:44.027Z,20.52
2019-06-07T00:25:44.063Z,20.49
2019-06-07T00:26:57.746Z,20.32
2019-06-07T00:27:44.140Z,20.29
2019-06-07T00:28:44.179Z,20.18
2019-06-07T00:29:44.218Z,20.07
2019-06-07T00:30:51.734Z,19.90
2019-06-07T00:31:44.298Z,19.85
2019-06-07T00:32:44.333Z,19.63
2019-06-07T00:33:44.374Z,19.62
2019-06-07T00:34:44.413Z,19.49
2019-06-07T00:35:44.450Z,19.34
2019-06-07T00:36:44.497Z,19.37
2019-06-07T00:37:44.529Z,19.27
2019-06-07T00:38:44.565Z,19.19
2019-06-07T00:39:44.606Z,19.11
2019-06-07T00:40:44.642Z,19.08
2019-06-07T00:41:44.687Z,18.91
2019-06-07T00:42:44.720Z,18.85
2019-06-07T00:43:44.759Z,18.78
2019-06-07T00:44:44.797Z,18.78
2019-06-07T00:45:44.837Z,18.64
2019-06-07T00:46:44.873Z,18.58
2019-06-07T00:47:44.916Z,18.52
2019-06-07T00:48:45.007Z,18.48
2019-06-07T00:49:44.988Z,18.34
2019-06-07T00:50:45.027Z,18.34
2019-06-07T00:51:50.296Z,18.28
2019-06-07T00:53:45.139Z,18.26
2019-06-07T00:54:45.184Z,18.28
2019-06-07T00:55:45.219Z,18.19
2019-06-07T00:56:45.259Z,18.23
2019-06-07T00:57:45.293Z,18.16
2019-06-07T00:58:45.332Z,18.24
2019-06-07T00:59:45.367Z,18.21
2019-06-07T01:00:45.408Z,18.19
2019-06-07T01:01:45.444Z,18.24
2019-06-07T01:02:45.485Z,18.26
2019-06-07T01:03:45.519Z,18.31
2019-06-07T01:04:45.557Z,18.39
2019-06-07T01:05:45.596Z,18.39
2019-06-07T01:06:45.637Z,18.41
2019-06-07T01:07:45.673Z,18.64
2019-06-07T01:08:45.710Z,18.73
2019-06-07T01:09:45.747Z,19.07
2019-06-07T01:10:53.632Z,19.17
2019-06-07T01:11:45.839Z,19.45
2019-06-07T01:12:45.866Z,19.56
2019-06-07T01:13:45.898Z,19.70
2019-06-07T01:14:46.019Z,19.77
2019-06-07T01:15:45.976Z,19.94
2019-06-07T01:16:57.184Z,20.04
2019-06-07T01:18:31.276Z,20.07
2019-06-07T01:18:51.008Z,20.11
2019-06-07T01:19:46.122Z,20.12
2019-06-07T01:20:46.163Z,20.15
2019-06-07T01:21:46.202Z,20.15
2019-06-07T01:22:46.264Z,20.11
2019-06-07T01:24:08.119Z,20.07
2019-06-07T01:24:46.313Z,20.19
2019-06-07T01:25:46.352Z,20.21
2019-06-07T01:26:46.389Z,20.26
2019-06-07T01:27:46.428Z,20.27
2019-06-07T01:28:46.464Z,20.22
2019-06-07T01:29:46.506Z,20.24
2019-06-07T01:30:46.540Z,20.17
2019-06-07T01:31:46.580Z,20.07
2019-06-07T01:32:46.617Z,20.11
2019-06-07T01:33:50.750Z,20.08
2019-06-07T01:34:46.700Z,20.17
2019-06-07T01:35:46.733Z,20.19
2019-06-07T01:36:46.768Z,20.17
2019-06-07T01:37:46.805Z,20.22
2019-06-07T01:38:46.844Z,20.27
2019-06-07T01:39:46.882Z,20.33
2019-06-07T01:40:46.920Z,20.29
2019-06-07T01:41:46.958Z,20.33
2019-06-07T01:42:47.027Z,20.32
2019-06-07T01:43:47.032Z,20.34
2019-06-07T01:44:47.089Z,20.36
2019-06-07T01:45:47.110Z,20.46
2019-06-07T01:46:47.148Z,20.50
2019-06-07T01:47:47.191Z,20.46
2019-06-07T01:48:49.835Z,20.34
2019-06-07T01:49:47.263Z,20.50
2019-06-07T01:50:47.303Z,20.44
2019-06-07T01:51:47.338Z,20.42
2019-06-07T01:52:47.375Z,20.40
2019-06-07T01:53:47.414Z,20.33
2019-06-07T01:54:57.976Z,20.32
2019-06-07T01:55:47.492Z,20.34
2019-06-07T01:56:47.555Z,20.32
2019-06-07T01:57:48.690Z,20.30
2019-06-07T01:58:47.606Z,20.36
2019-06-07T01:59:47.644Z,20.33
2019-06-07T02:00:47.681Z,20.21
2019-06-07T02:01:47.720Z,20.22
2019-06-07T02:02:47.764Z,20.21
2019-06-07T02:03:47.799Z,20.26
2019-06-07T02:04:48.075Z,20.24
2019-06-07T02:05:47.874Z,20.18
2019-06-07T02:06:47.911Z,20.27
2019-06-07T02:07:47.951Z,20.21
2019-06-07T02:08:47.988Z,20.24
2019-06-07T02:09:48.025Z,20.30
2019-06-07T02:10:48.071Z,20.30
2019-06-07T02:11:48.101Z,20.26
2019-06-07T02:12:48.139Z,20.30
2019-06-07T02:13:48.183Z,20.26
2019-06-07T02:14:48.216Z,20.32
2019-06-07T02:15:48.253Z,20.22
2019-06-07T02:16:48.292Z,20.26
2019-06-07T02:17:48.331Z,20.21
2019-06-07T02:19:01.233Z,20.22
2019-06-07T02:19:48.409Z,20.17
2019-06-07T02:20:48.444Z,20.18
2019-06-07T02:21:48.485Z,20.15
2019-06-07T02:22:48.522Z,20.07
2019-06-07T02:23:48.563Z,19.99
2019-06-07T02:25:34.138Z,20.02
2019-06-07T02:25:50.600Z,20.00
2019-06-07T02:26:48.676Z,19.92
2019-06-07T02:27:48.716Z,19.99
2019-06-07T02:28:48.754Z,20.00
2019-06-07T02:29:48.793Z,19.87
2019-06-07T02:30:59.512Z,20.00
2019-06-07T02:31:48.868Z,19.92
2019-06-07T02:32:48.907Z,19.81
2019-06-07T02:33:48.942Z,19.81
2019-06-07T02:34:48.983Z,19.66
2019-06-07T02:35:49.020Z,19.67
2019-06-07T02:36:49.058Z,19.64
2019-06-07T02:37:49.096Z,19.55
2019-06-07T02:38:49.140Z,19.47
2019-06-07T02:39:49.172Z,19.42
2019-06-07T02:40:49.213Z,19.39
2019-06-07T02:41:49.252Z,19.38
2019-06-07T02:42:49.388Z,19.32
2019-06-07T02:43:49.325Z,19.29
2019-06-07T02:44:49.363Z,19.38
2019-06-07T02:45:49.403Z,19.35
2019-06-07T02:46:50.121Z,19.38
2019-06-07T02:47:49.483Z,19.42
2019-06-07T02:48:49.520Z,19.47
2019-06-07T02:49:49.556Z,19.45
2019-06-07T02:50:49.621Z,19.47
2019-06-07T02:51:49.636Z,19.49
2019-06-07T02:52:49.675Z,19.56
2019-06-07T02:53:49.710Z,19.55
2019-06-07T02:54:49.746Z,19.63
2019-06-07T02:56:34.239Z,19.67
2019-06-07T02:56:58.038Z,19.72
2019-06-07T02:57:49.873Z,19.71
2019-06-07T02:58:49.900Z,19.79
2019-06-07T03:00:06.545Z,19.90
2019-06-07T03:01:09.175Z,19.85
2019-06-07T03:01:50.012Z,19.81
2019-06-07T03:02:50.059Z,19.74
2019-06-07T03:03:50.088Z,19.79
2019-06-07T03:04:50.126Z,19.81
2019-06-07T03:05:50.165Z,19.89
2019-06-07T03:06:50.212Z,19.87
2019-06-07T03:07:50.247Z,19.82
2019-06-07T03:08:50.281Z,19.75
2019-06-07T03:09:50.317Z,19.75
2019-06-07T03:10:50.357Z,19.78
2019-06-07T03:11:50.397Z,19.70
2019-06-07T03:12:50.435Z,19.70
2019-06-07T03:13:50.474Z,19.72
2019-06-07T03:14:50.507Z,19.67
2019-06-07T03:15:50.573Z,19.75
2019-06-07T03:16:50.588Z,19.74
2019-06-07T03:17:50.652Z,19.82
2019-06-07T03:18:50.660Z,19.79
2019-06-07T03:19:50.702Z,19.82
2019-06-07T03:21:04.540Z,19.81
2019-06-07T03:21:50.775Z,19.78
2019-06-07T03:22:50.814Z,19.79
2019-06-07T03:23:50.852Z,19.78
2019-06-07T03:24:50.892Z,19.79
2019-06-07T03:25:50.928Z,19.82
2019-06-07T03:27:51.009Z,19.90
2019-06-07T03:28:51.046Z,19.87
2019-06-07T03:29:51.081Z,20.00
2019-06-07T03:31:01.464Z,20.08
2019-06-07T03:31:51.182Z,19.99
2019-06-07T03:32:52.206Z,20.10
2019-06-07T03:33:51.236Z,20.07
2019-06-07T03:34:51.272Z,20.18
2019-06-07T03:35:51.309Z,20.29
2019-06-07T03:36:51.349Z,20.46
2019-06-07T03:37:51.390Z,20.56
2019-06-07T03:38:51.430Z,20.68
2019-06-07T03:39:51.464Z,20.73
2019-06-07T03:40:51.501Z,20.73
2019-06-07T03:42:05.690Z,20.88
2019-06-07T03:42:51.578Z,21.03
2019-06-07T03:43:51.620Z,21.03
2019-06-07T03:44:51.657Z,20.98
2019-06-07T03:45:51.698Z,21.11
2019-06-07T03:46:51.734Z,21.15
2019-06-07T03:47:52.445Z,21.13
2019-06-07T03:48:51.812Z,21.17
2019-06-07T03:49:51.853Z,21.19
2019-06-07T03:51:04.326Z,21.26
2019-06-07T03:51:51.927Z,21.20
2019-06-07T03:52:51.966Z,21.28
2019-06-07T03:53:52.005Z,21.29
2019-06-07T03:54:52.044Z,21.43
2019-06-07T03:55:52.088Z,21.30
2019-06-07T03:56:52.119Z,21.44
2019-06-07T03:58:52.200Z,21.53
2019-06-07T03:59:52.238Z,21.58
2019-06-07T04:00:52.277Z,21.59
2019-06-07T04:01:52.318Z,21.68
2019-06-07T04:02:52.355Z,21.75
2019-06-07T04:03:52.396Z,21.91
2019-06-07T04:04:52.432Z,21.89
2019-06-07T04:05:52.475Z,21.81
2019-06-07T04:06:52.586Z,22.03
2019-06-07T04:07:52.555Z,22.08
2019-06-07T04:08:52.592Z,22.18
2019-06-07T04:09:52.632Z,22.34
2019-06-07T04:10:59.881Z,22.34
2019-06-07T04:11:52.713Z,22.30
2019-06-07T04:12:52.751Z,22.30
2019-06-07T04:13:52.791Z,22.37
2019-06-07T04:14:52.835Z,22.25
2019-06-07T04:15:52.937Z,21.99
2019-06-07T04:16:52.971Z,22.06
2019-06-07T04:18:01.987Z,22.07
2019-06-07T04:18:52.988Z,22.00
2019-06-07T04:19:53.027Z,22.01
2019-06-07T04:20:53.070Z,22.16
2019-06-07T04:21:53.141Z,22.22
2019-06-07T04:22:53.147Z,22.25
2019-06-07T04:23:53.185Z,22.28
2019-06-07T04:24:53.236Z,22.33
2019-06-07T04:25:53.266Z,22.51
2019-06-07T04:26:53.322Z,22.58
2019-06-07T04:27:53.348Z,22.76
2019-06-07T04:29:31.754Z,22.98
2019-06-07T04:30:06.573Z,23.47
2019-06-07T04:30:53.472Z,23.89
2019-06-07T04:31:53.508Z,23.99
2019-06-07T04:32:53.557Z,24.11
2019-06-07T04:33:53.590Z,24.25
2019-06-07T04:34:53.631Z,24.50
2019-06-07T04:35:53.672Z,24.82
2019-06-07T04:36:58.958Z,25.36
2019-06-07T04:37:53.756Z,25.30
2019-06-07T04:38:53.799Z,25.39
2019-06-07T04:39:53.917Z,25.80
2019-06-07T04:40:53.880Z,25.62
2019-06-07T04:41:53.924Z,25.44
2019-06-07T04:42:53.966Z,25.63
2019-06-07T04:43:54.008Z,25.66
2019-06-07T04:44:54.050Z,25.98
2019-06-07T04:45:54.096Z,26.08
2019-06-07T04:46:54.143Z,26.41
2019-06-07T04:47:54.182Z,26.26
2019-06-07T04:48:54.252Z,25.85
2019-06-07T04:49:54.270Z,25.74
2019-06-07T04:50:54.310Z,25.83
2019-06-07T04:51:54.354Z,25.95
2019-06-07T04:52:54.401Z,26.55
2019-06-07T04:53:54.448Z,26.59
2019-06-07T04:54:54.497Z,26.48
2019-06-07T04:55:54.532Z,26.36
2019-06-07T04:56:54.575Z,27.03
2019-06-07T04:57:54.618Z,27.13
2019-06-07T04:58:54.664Z,26.83
2019-06-07T05:00:11.952Z,26.89
2019-06-07T05:01:02.572Z,26.86
2019-06-07T05:01:54.798Z,26.93
2019-06-07T05:02:54.845Z,27.28
2019-06-07T05:03:54.889Z,27.45
2019-06-07T05:04:54.936Z,27.52
2019-06-07T05:05:55.014Z,27.93
2019-06-07T05:06:55.025Z,28.47
2019-06-07T05:07:55.073Z,28.50
2019-06-07T05:08:55.118Z,28.33
2019-06-07T05:09:55.165Z,28.65
2019-06-07T05:10:55.217Z,28.80
2019-06-07T05:11:55.255Z,28.71
2019-06-07T05:12:55.314Z,28.60
2019-06-07T05:13:55.348Z,28.68
2019-06-07T05:14:55.397Z,28.94
2019-06-07T05:15:55.443Z,29.09
2019-06-07T05:16:55.489Z,29.13
2019-06-07T05:17:55.539Z,28.96
2019-06-07T05:18:55.585Z,28.62
2019-06-07T05:19:55.628Z,28.97
2019-06-07T05:20:55.678Z,28.87
2019-06-07T05:22:04.385Z,28.97
2019-06-07T05:22:55.771Z,29.42
2019-06-07T05:24:06.335Z,29.67
2019-06-07T05:24:55.927Z,29.16
2019-06-07T05:25:55.915Z,29.09
2019-06-07T05:26:55.970Z,29.20
2019-06-07T05:27:56.010Z,28.67
2019-06-07T05:28:56.056Z,28.31
2019-06-07T05:30:09.638Z,28.06
2019-06-07T05:31:05.756Z,28.50
2019-06-07T05:31:56.201Z,28.16
2019-06-07T05:32:56.253Z,28.20
2019-06-07T05:33:56.301Z,28.34
2019-06-07T05:34:56.385Z,28.22
2019-06-07T05:35:56.397Z,28.00
2019-06-07T05:37:11.094Z,28.15
2019-06-07T05:37:56.494Z,27.90
2019-06-07T05:38:56.543Z,27.63
2019-06-07T05:39:56.588Z,27.03
2019-06-07T05:40:56.638Z,27.15
2019-06-07T05:41:56.686Z,27.57
2019-06-07T05:42:56.740Z,28.01
2019-06-07T05:44:12.166Z,27.11
2019-06-07T05:44:56.833Z,27.25
2019-06-07T05:45:56.885Z,27.30
2019-06-07T05:46:56.931Z,26.79
2019-06-07T05:47:56.984Z,26.67
2019-06-07T05:48:57.024Z,25.88
2019-06-07T05:49:57.100Z,25.55
2019-06-07T05:50:57.766Z,24.84
2019-06-07T05:51:57.174Z,24.71
2019-06-07T05:52:57.249Z,24.34
2019-06-07T05:53:57.266Z,24.56
2019-06-07T05:54:57.314Z,24.53
2019-06-07T05:55:57.363Z,25.06
2019-06-07T05:56:57.409Z,25.04
2019-06-07T05:57:57.460Z,25.54
2019-06-07T05:58:57.531Z,25.80
2019-06-07T05:59:57.554Z,25.34
2019-06-07T06:01:40.814Z,24.51
2019-06-07T06:02:05.063Z,24.75
2019-06-07T06:03:05.206Z,25.48
2019-06-07T06:03:57.743Z,25.46
2019-06-07T06:04:57.792Z,24.75
2019-06-07T06:05:57.840Z,25.52
2019-06-07T06:06:57.888Z,25.26
2019-06-07T06:07:57.940Z,24.79
2019-06-07T06:09:13.197Z,25.12
2019-06-07T06:09:58.029Z,25.21
2019-06-07T06:10:58.076Z,24.75
2019-06-07T06:12:02.230Z,25.40
2019-06-07T06:12:58.169Z,25.44
2019-06-07T06:14:07.455Z,25.24
2019-06-07T06:14:58.265Z,24.61
2019-06-07T06:16:02.067Z,24.85
2019-06-07T06:16:58.365Z,25.67
2019-06-07T06:17:58.408Z,26.08
2019-06-07T06:18:58.460Z,26.15
2019-06-07T06:19:58.749Z,25.74
2019-06-07T06:21:16.260Z,25.71
2019-06-07T06:21:58.595Z,26.16
2019-06-07T06:22:58.645Z,26.60
2019-06-07T06:23:58.690Z,26.48
2019-06-07T06:25:30.942Z,26.19
2019-06-07T06:25:58.783Z,26.23
2019-06-07T06:27:15.281Z,26.37
2019-06-07T06:28:12.042Z,26.63
2019-06-07T06:28:58.926Z,26.67
2019-06-07T06:29:58.975Z,26.51
2019-06-07T06:30:59.026Z,26.44
2019-06-07T06:32:59.155Z,26.51
2019-06-07T06:33:59.182Z,26.83
2019-06-07T06:34:59.212Z,26.89
2019-06-07T06:35:59.259Z,27.72
2019-06-07T06:36:59.306Z,27.33
2019-06-07T06:37:59.580Z,27.19
2019-06-07T06:38:59.405Z,27.60
2019-06-07T06:39:59.450Z,28.15
2019-06-07T06:41:15.142Z,27.93
2019-06-07T06:42:03.655Z,28.45
2019-06-07T06:42:59.598Z,28.09
2019-06-07T06:43:59.646Z,28.13
2019-06-07T06:44:59.695Z,28.33
2019-06-07T06:45:59.743Z,28.84
2019-06-07T06:46:59.789Z,29.22
2019-06-07T06:47:59.840Z,28.46
2019-06-07T06:48:59.887Z,28.57
2019-06-07T06:49:59.939Z,28.00
2019-06-07T06:50:59.985Z,27.18
2019-06-07T06:52:00.037Z,27.83
2019-06-07T06:53:00.084Z,27.63
2019-06-07T06:54:00.137Z,28.23
2019-06-07T06:55:01.211Z,28.33
2019-06-07T06:56:00.231Z,27.45
2019-06-07T06:57:18.106Z,27.94
2019-06-07T06:58:00.333Z,27.66
2019-06-07T06:59:33.988Z,27.66
2019-06-07T07:00:00.438Z,27.45
2019-06-07T07:01:06.628Z,27.82
2019-06-07T07:02:00.528Z,28.25
2019-06-07T07:03:47.155Z,27.97
2019-06-07T07:04:12.231Z,28.08
2019-06-07T07:05:00.678Z,27.57
2019-06-07T07:06:24.603Z,27.88
2019-06-07T07:07:00.777Z,28.41
2019-06-07T07:08:00.826Z,28.12
2019-06-07T07:09:00.881Z,27.67
2019-06-07T07:10:00.946Z,27.61
2019-06-07T07:11:00.979Z,27.88
2019-06-07T07:12:11.954Z,27.68
2019-06-07T07:13:01.079Z,27.40
2019-06-07T07:14:01.126Z,27.82
2019-06-07T07:15:01.179Z,27.83
2019-06-07T07:16:01.366Z,27.95
2019-06-07T07:17:01.276Z,26.89
2019-06-07T07:18:08.570Z,27.18
2019-06-07T07:19:01.383Z,27.15
2019-06-07T07:20:01.428Z,27.45
2019-06-07T07:21:01.478Z,27.37
2019-06-07T07:22:01.605Z,27.66
2019-06-07T07:23:01.577Z,28.41
2019-06-07T07:24:20.191Z,28.60
2019-06-07T07:25:01.678Z,28.16
2019-06-07T07:26:01.731Z,28.62
2019-06-07T07:27:01.779Z,28.56
2019-06-07T07:28:01.830Z,28.64
2019-06-07T07:29:01.878Z,28.12
2019-06-07T07:30:35.637Z,27.72
2019-06-07T07:31:01.979Z,27.90
2019-06-07T07:32:02.027Z,28.15
2019-06-07T07:33:02.158Z,28.28
2019-06-07T07:35:02.183Z,28.22
2019-06-07T07:36:19.052Z,28.56
2019-06-07T07:37:02.279Z,28.00
2019-06-07T07:38:02.336Z,28.34
2019-06-07T07:39:05.309Z,28.13
2019-06-07T07:40:54.895Z,28.67
2019-06-07T07:41:13.804Z,28.87
2019-06-07T07:42:20.080Z,28.55
2019-06-07T07:43:02.590Z,29.13
2019-06-07T07:44:07.156Z,29.68
2019-06-07T07:45:02.716Z,29.64
2019-06-07T07:46:06.074Z,29.35
2019-06-07T07:47:02.788Z,28.64
2019-06-07T07:48:15.718Z,29.05
2019-06-07T07:49:02.893Z,28.20
2019-06-07T07:50:02.940Z,28.72
2019-06-07T07:51:03.433Z,28.56
2019-06-07T07:52:03.084Z,28.57
2019-06-07T07:53:03.104Z,28.53
2019-06-07T07:54:10.551Z,28.92
2019-06-07T07:55:03.202Z,29.53
2019-06-07T07:56:03.335Z,29.39
2019-06-07T07:57:03.304Z,29.44
2019-06-07T07:58:03.353Z,29.07
2019-06-07T07:59:03.593Z,28.83
2019-06-07T08:00:36.730Z,28.71
2019-06-07T08:01:10.229Z,28.12
2019-06-07T08:02:03.563Z,27.76
2019-06-07T08:03:04.436Z,28.47
2019-06-07T08:04:03.667Z,28.53
2019-06-07T08:05:22.069Z,28.94
2019-06-07T08:06:03.768Z,29.03
2019-06-07T08:07:03.819Z,29.43
2019-06-07T08:08:07.494Z,29.57
2019-06-07T08:09:03.924Z,29.15
2019-06-07T08:10:04.579Z,29.21
2019-06-07T08:11:04.090Z,29.10
2019-06-07T08:12:04.092Z,28.90
2019-06-07T08:13:23.495Z,29.15
2019-06-07T08:14:04.182Z,28.35
2019-06-07T08:15:04.369Z,28.80
2019-06-07T08:16:08.965Z,28.97
2019-06-07T08:17:04.341Z,29.43
2019-06-07T08:18:04.850Z,29.10
2019-06-07T08:19:04.715Z,28.96
2019-06-07T08:20:04.498Z,29.06
2019-06-07T08:21:23.616Z,28.55
2019-06-07T08:22:04.608Z,29.06
2019-06-07T08:23:04.657Z,29.32
2019-06-07T08:24:05.553Z,29.68
2019-06-07T08:25:04.763Z,29.98
2019-06-07T08:26:04.824Z,29.67
2019-06-07T08:27:25.318Z,29.68
2019-06-07T08:28:04.920Z,29.80
2019-06-07T08:29:04.979Z,30.56
2019-06-07T08:30:35.046Z,30.39
2019-06-07T08:31:07.124Z,30.32
2019-06-07T08:32:05.131Z,29.99
2019-06-07T08:33:24.894Z,29.59
2019-06-07T08:34:05.237Z,29.79
2019-06-07T08:35:06.714Z,30.05
2019-06-07T08:36:19.401Z,30.40
2019-06-07T08:37:05.400Z,30.51
2019-06-07T08:38:24.961Z,30.56
2019-06-07T08:39:07.487Z,31.23
2019-06-07T08:40:05.630Z,31.41
2019-06-07T08:41:11.985Z,31.42
2019-06-07T08:42:21.233Z,31.10
2019-06-07T08:43:18.186Z,30.59
2019-06-07T08:44:22.736Z,31.07
2019-06-07T08:45:05.906Z,30.92
2019-06-07T08:46:07.830Z,31.11
2019-06-07T08:47:19.897Z,31.13
2019-06-07T08:48:26.652Z,30.76
2019-06-07T08:49:06.048Z,31.00
2019-06-07T08:50:07.911Z,31.30
2019-06-07T08:51:08.572Z,30.69
2019-06-07T08:52:11.777Z,29.69
2019-06-07T08:53:12.169Z,29.74
2019-06-07T08:54:21.808Z,30.18
2019-06-07T08:55:06.369Z,29.43
2019-06-07T08:56:10.524Z,29.73
2019-06-07T08:57:20.522Z,29.68
2019-06-07T08:58:08.722Z,29.79
2019-06-07T08:59:11.505Z,30.11
2019-06-07T09:00:41.833Z,29.76
2019-06-07T09:01:08.950Z,30.26
2019-06-07T09:02:22.831Z,29.68
2019-06-07T09:03:07.581Z,29.15
2019-06-07T09:04:10.995Z,28.82
2019-06-07T09:05:12.289Z,28.19
2019-06-07T09:06:40.754Z,27.78
2019-06-07T09:07:18.957Z,27.58
2019-06-07T09:08:28.739Z,27.30
2019-06-07T09:09:07.128Z,27.66
2019-06-07T09:10:13.428Z,29.03
2019-06-07T09:11:11.162Z,29.58
2019-06-07T09:12:11.167Z,30.05
2019-06-07T09:13:11.317Z,30.39
2019-06-07T09:14:09.197Z,30.67
2019-06-07T09:15:20.848Z,30.77
2019-06-07T09:16:08.995Z,30.63
2019-06-07T09:17:12.075Z,30.63
2019-06-07T09:18:37.806Z,30.89
2019-06-07T09:19:10.937Z,30.62
2019-06-07T09:20:28.312Z,30.86
2019-06-07T09:21:09.727Z,31.22
2019-06-07T09:22:11.086Z,31.36
2019-06-07T09:23:16.279Z,31.47
2019-06-07T09:24:11.331Z,31.50
2019-06-07T09:25:19.865Z,31.66
2019-06-07T09:26:17.644Z,31.57
2019-06-07T09:27:10.384Z,31.98
2019-06-07T09:28:19.125Z,31.04
2019-06-07T09:29:11.054Z,31.52
2019-06-07T09:30:16.032Z,30.88
2019-06-07T09:31:10.443Z,31.15
2019-06-07T09:32:14.821Z,31.05
2019-06-07T09:33:09.053Z,31.42
2019-06-07T09:34:14.528Z,31.37
2019-06-07T09:35:16.503Z,30.44
2019-06-07T09:36:12.538Z,30.70
2019-06-07T09:37:54.687Z,30.46
2019-06-07T09:38:23.764Z,30.03
2019-06-07T09:39:12.491Z,29.99
2019-06-07T09:40:21.683Z,29.18
2019-06-07T09:41:09.797Z,28.64
2019-06-07T09:42:11.995Z,28.90
2019-06-07T09:44:21.392Z,29.12
2019-06-07T09:45:13.708Z,29.39
2019-06-07T09:46:12.995Z,30.24
2019-06-07T09:47:30.712Z,29.76
2019-06-07T09:48:13.398Z,29.43
2019-06-07T09:49:16.725Z,29.81
2019-06-07T09:50:12.166Z,29.80
2019-06-07T09:51:19.514Z,29.15
2019-06-07T09:52:11.029Z,28.68
2019-06-07T09:53:21.125Z,28.92
2019-06-07T09:54:11.475Z,29.40
2019-06-07T09:55:23.130Z,29.65
2019-06-07T09:56:12.076Z,31.02
2019-06-07T09:57:16.665Z,31.08
2019-06-07T09:58:49.751Z,31.44
2019-06-07T09:59:12.842Z,31.23
2019-06-07T10:00:36.814Z,30.46
2019-06-07T10:01:13.528Z,29.67
2019-06-07T10:02:13.607Z,29.09
2019-06-07T10:03:20.752Z,27.91
2019-06-07T10:04:28.231Z,27.22
2019-06-07T10:05:14.159Z,27.22
2019-06-07T10:06:13.725Z,27.26
2019-06-07T10:07:28.851Z,27.05
2019-06-07T10:08:41.340Z,27.35
2019-06-07T10:11:10.465Z,29.37
2019-06-07T10:12:10.514Z,30.26
2019-06-07T10:13:10.586Z,29.79
2019-06-07T10:14:10.626Z,29.53
2019-06-07T10:15:10.669Z,29.35
2019-06-07T10:16:10.721Z,29.68
2019-06-07T10:17:10.775Z,29.69
2019-06-07T10:18:10.827Z,29.47
2019-06-07T10:19:10.879Z,29.15
2019-06-07T10:20:10.929Z,29.07
2019-06-07T10:21:15.040Z,28.80
2019-06-07T10:22:11.033Z,29.49
2019-06-07T10:23:11.100Z,29.07
2019-06-07T10:24:11.167Z,29.55
2019-06-07T10:25:11.188Z,30.39
2019-06-07T10:26:11.240Z,29.98
2019-06-07T10:27:11.298Z,30.58
2019-06-07T10:28:11.351Z,30.93
2019-06-07T10:29:11.396Z,31.10
2019-06-07T10:30:11.450Z,30.80
2019-06-07T10:31:11.550Z,31.22
2019-06-07T10:32:11.665Z,31.17
2019-06-07T10:33:11.661Z,30.98
2019-06-07T10:34:11.660Z,30.33
2019-06-07T10:35:16.083Z,30.03
2019-06-07T10:36:11.765Z,30.17
2019-06-07T10:37:15.467Z,30.40
2019-06-07T10:38:11.875Z,29.87
2019-06-07T10:39:11.926Z,30.06
2019-06-07T10:40:11.977Z,30.98
2019-06-07T10:41:12.030Z,31.04
2019-06-07T10:42:12.086Z,31.07
2019-06-07T10:43:14.443Z,30.95
2019-06-07T10:44:12.190Z,30.86
2019-06-07T10:45:12.438Z,30.16
2019-06-07T10:46:12.300Z,30.67
2019-06-07T10:47:12.442Z,31.15
2019-06-07T10:48:12.407Z,31.51
2019-06-07T10:49:12.467Z,31.47
2019-06-07T10:50:12.516Z,31.10
2019-06-07T10:51:14.831Z,30.61
2019-06-07T10:52:13.332Z,30.39
2019-06-07T10:53:12.684Z,30.52
2019-06-07T10:54:24.836Z,31.11
2019-06-07T10:55:12.781Z,31.20
2019-06-07T10:56:13.381Z,31.00
2019-06-07T10:57:16.024Z,31.32
2019-06-07T10:58:13.286Z,31.30
2019-06-07T10:59:13.703Z,31.05
2019-06-07T11:00:13.617Z,31.15
2019-06-07T11:01:14.417Z,31.07
2019-06-07T11:02:14.087Z,30.83
2019-06-07T11:03:14.233Z,31.20
2019-06-07T11:04:13.804Z,31.15
2019-06-07T11:05:14.454Z,31.29
2019-06-07T11:06:14.287Z,31.05
2019-06-07T11:07:14.502Z,31.63
2019-06-07T11:08:14.918Z,32.31
2019-06-07T11:09:14.257Z,31.98
2019-06-07T11:10:19.481Z,32.44
2019-06-07T11:11:14.395Z,32.31
2019-06-07T11:12:15.241Z,32.30
2019-06-07T11:13:14.461Z,31.98
2019-06-07T11:14:14.783Z,32.19
2019-06-07T11:15:15.024Z,32.59
2019-06-07T11:16:15.526Z,32.35
2019-06-07T11:17:15.566Z,32.48
2019-06-07T11:18:14.420Z,31.66
2019-06-07T11:19:17.430Z,31.54
2019-06-07T11:20:14.466Z,31.92
2019-06-07T11:21:14.386Z,31.57
2019-06-07T11:22:14.306Z,31.18
2019-06-07T11:23:14.409Z,31.55
2019-06-07T11:24:14.512Z,31.92
2019-06-07T11:25:14.778Z,31.74
2019-06-07T11:26:14.583Z,31.54
2019-06-07T11:27:16.390Z,32.31
2019-06-07T11:28:14.826Z,31.85
2019-06-07T11:29:15.128Z,31.97
2019-06-07T11:30:14.685Z,31.45
2019-06-07T11:31:15.171Z,31.72
2019-06-07T11:32:14.797Z,31.20
2019-06-07T11:33:16.338Z,31.50
2019-06-07T11:34:14.873Z,31.85
2019-06-07T11:35:15.502Z,32.27
2019-06-07T11:36:15.397Z,31.87
2019-06-07T11:37:16.154Z,31.86
2019-06-07T11:38:15.087Z,31.55
2019-06-07T11:39:15.285Z,31.93
2019-06-07T11:40:35.604Z,31.54
2019-06-07T11:41:15.909Z,31.39
2019-06-07T11:42:15.306Z,29.79
2019-06-07T11:43:15.360Z,29.86
2019-06-07T11:44:15.410Z,31.02
2019-06-07T11:45:15.590Z,31.73
2019-06-07T11:46:15.515Z,32.29
2019-06-07T11:47:15.569Z,32.41
2019-06-07T11:48:15.628Z,31.41
2019-06-07T11:49:20.400Z,30.93
2019-06-07T11:50:15.885Z,31.73
2019-06-07T11:51:15.782Z,31.22
2019-06-07T11:52:15.907Z,30.93
2019-06-07T11:53:15.889Z,30.51
2019-06-07T11:54:16.301Z,29.90
2019-06-07T11:55:16.076Z,29.55
2019-06-07T11:56:16.122Z,30.58
2019-06-07T11:57:17.335Z,30.99
2019-06-07T11:58:19.751Z,31.10
2019-06-07T11:59:17.338Z,31.70
2019-06-07T12:00:18.225Z,31.48
2019-06-07T12:01:17.141Z,32.08
2019-06-07T12:02:17.615Z,32.48
2019-06-07T12:03:17.918Z,32.23
2019-06-07T12:04:32.413Z,33.08
2019-06-07T12:05:19.021Z,33.03
2019-06-07T12:06:18.003Z,32.11
2019-06-07T12:07:17.632Z,32.48
2019-06-07T12:08:16.681Z,31.57
2019-06-07T12:09:16.963Z,31.29
2019-06-07T12:10:22.259Z,31.81
2019-06-07T12:11:16.844Z,31.28
2019-06-07T12:12:16.892Z,31.78
2019-06-07T12:13:17.387Z,32.11
2019-06-07T12:14:17.014Z,32.71
2019-06-07T12:15:17.456Z,32.90
2019-06-07T12:16:17.434Z,32.68
2019-06-07T12:17:17.644Z,33.40
2019-06-07T12:18:17.393Z,33.03
2019-06-07T12:19:17.657Z,33.08
2019-06-07T12:20:18.649Z,33.63
2019-06-07T12:21:18.041Z,33.08
2019-06-07T12:22:17.904Z,33.66
2019-06-07T12:23:18.109Z,33.01
2019-06-07T12:24:19.482Z,33.55
2019-06-07T12:25:22.574Z,33.28
2019-06-07T12:26:18.585Z,32.85
2019-06-07T12:27:18.718Z,32.26
2019-06-07T12:28:18.806Z,32.95
2019-06-07T12:29:19.122Z,32.94
2019-06-07T12:30:25.401Z,32.98
2019-06-07T12:31:19.148Z,32.95
2019-06-07T12:32:19.477Z,32.88
2019-06-07T12:33:18.016Z,32.91
2019-06-07T12:34:19.425Z,33.22
2019-06-07T12:35:18.129Z,32.75
2019-06-07T12:36:18.179Z,32.46
2019-06-07T12:37:21.012Z,32.31
2019-06-07T12:38:19.384Z,32.46
2019-06-07T12:39:18.343Z,32.81
2019-06-07T12:40:27.641Z,32.64
2019-06-07T12:41:18.458Z,32.31
2019-06-07T12:42:18.596Z,32.88
2019-06-07T12:43:19.131Z,33.76
2019-06-07T12:44:18.693Z,33.77
2019-06-07T12:45:41.339Z,34.40
2019-06-07T12:46:23.007Z,34.53
2019-06-07T12:47:18.953Z,34.98
2019-06-07T12:48:21.294Z,34.47
2019-06-07T12:49:19.199Z,34.18
2019-06-07T12:50:19.601Z,33.48
2019-06-07T12:51:19.391Z,32.78
2019-06-07T12:52:20.103Z,32.00
2019-06-07T12:53:24.241Z,32.20
2019-06-07T12:54:19.669Z,32.64
2019-06-07T12:55:20.440Z,33.08
2019-06-07T12:56:19.822Z,32.46
2019-06-07T12:57:20.142Z,32.26
2019-06-07T12:58:28.166Z,33.29
2019-06-07T12:59:20.040Z,33.70
2019-06-07T13:00:20.267Z,33.28
2019-06-07T13:01:20.862Z,32.63